createdAt,value
2018-12-16T00:00:27.552Z,33.00
2018-12-16T00:02:54.124Z,31.97
2018-12-16T00:05:20.640Z,29.80
2018-12-16T00:07:47.378Z,33.87
2018-12-16T00:10:13.888Z,31.80
2018-12-16T00:12:40.466Z,29.70
2018-12-16T00:15:06.910Z,32.00
2018-12-16T00:17:33.392Z,29.20
2018-12-16T00:19:59.967Z,37.53
2018-12-16T00:22:29.845Z,36.17
2018-12-16T00:24:56.331Z,34.63
2018-12-16T00:27:22.811Z,29.80
2018-12-16T00:29:49.863Z,30.70
2018-12-16T00:32:16.484Z,30.43
2018-12-16T00:34:42.930Z,38.23
2018-12-16T00:37:09.727Z,30.40
2018-12-16T00:39:36.054Z,33.50
2018-12-16T00:42:02.569Z,32.60
2018-12-16T00:44:29.073Z,25.57
2018-12-16T00:46:55.827Z,34.80
2018-12-16T00:49:22.302Z,36.20
2018-12-16T00:51:49.059Z,36.07
2018-12-16T00:54:15.840Z,32.90
2018-12-16T00:56:42.365Z,30.63
2018-12-16T00:59:09.135Z,34.40
2018-12-16T01:01:35.650Z,33.27
2018-12-16T01:04:02.107Z,37.93
2018-12-16T01:06:28.875Z,31.67
2018-12-16T01:08:55.501Z,26.23
2018-12-16T01:11:21.993Z,25.03
2018-12-16T01:13:48.503Z,23.57
2018-12-16T01:16:15.132Z,21.97
2018-12-16T01:18:41.652Z,28.33
2018-12-16T01:21:08.151Z,27.97
2018-12-16T01:23:34.594Z,21.87
2018-12-16T01:26:01.112Z,21.27
2018-12-16T01:28:27.591Z,20.03
2018-12-16T01:30:54.055Z,24.57
2018-12-16T01:33:20.562Z,26.47
2018-12-16T01:35:47.067Z,28.93
2018-12-16T01:38:13.568Z,26.00
2018-12-16T01:40:40.041Z,27.03
2018-12-16T01:43:06.827Z,25.50
2018-12-16T01:45:33.412Z,25.17
2018-12-16T01:47:59.964Z,21.50
2018-12-16T01:50:26.799Z,23.97
2018-12-16T01:52:53.314Z,24.10
2018-12-16T01:55:19.795Z,24.53
2018-12-16T01:57:46.643Z,23.70
2018-12-16T02:00:13.107Z,17.93
2018-12-16T02:02:39.595Z,15.80
2018-12-16T02:05:06.294Z,21.87
2018-12-16T02:07:32.764Z,19.67
2018-12-16T02:09:59.402Z,20.03
2018-12-16T02:12:25.941Z,20.93
2018-12-16T02:14:52.478Z,22.87
2018-12-16T02:17:18.914Z,20.27
2018-12-16T02:19:45.449Z,18.37
2018-12-16T02:22:12.068Z,19.23
2018-12-16T02:24:38.657Z,17.03
2018-12-16T02:27:05.524Z,16.07
2018-12-16T02:29:31.979Z,18.27
2018-12-16T02:31:58.502Z,18.13
2018-12-16T02:34:25.002Z,16.93
2018-12-16T02:36:51.438Z,17.80
2018-12-16T02:39:17.946Z,15.57
2018-12-16T02:41:44.784Z,16.40
2018-12-16T02:44:11.219Z,16.47
2018-12-16T02:46:37.875Z,14.50
2018-12-16T02:49:04.654Z,15.17
2018-12-16T02:51:31.094Z,14.50
2018-12-16T02:53:57.575Z,11.87
2018-12-16T02:56:24.400Z,13.07
2018-12-16T02:58:50.902Z,12.57
2018-12-16T03:01:17.464Z,11.33
2018-12-16T03:03:44.219Z,11.60
2018-12-16T03:06:10.709Z,11.63
2018-12-16T03:08:37.147Z,11.53
2018-12-16T03:11:03.828Z,11.43
2018-12-16T03:13:30.432Z,10.13
2018-12-16T03:15:56.939Z,13.80
2018-12-16T03:18:23.433Z,15.10
2018-12-16T03:20:50.039Z,13.30
2018-12-16T03:23:16.545Z,14.43
2018-12-16T03:25:43.347Z,13.20
2018-12-16T03:28:09.799Z,14.33
2018-12-16T03:30:36.272Z,15.50
2018-12-16T03:33:02.933Z,11.67
2018-12-16T03:35:29.391Z,11.00
2018-12-16T03:37:55.919Z,15.53
2018-12-16T03:40:22.673Z,15.70
2018-12-16T03:42:49.180Z,18.83
2018-12-16T03:45:15.764Z,18.23
2018-12-16T03:47:42.519Z,19.63
2018-12-16T03:50:08.957Z,19.33
2018-12-16T03:52:35.472Z,19.60
2018-12-16T03:55:02.230Z,20.30
2018-12-16T03:57:28.740Z,22.30
2018-12-16T03:59:55.244Z,21.73
2018-12-16T04:02:22.163Z,24.10
2018-12-16T04:04:48.690Z,24.23
2018-12-16T04:07:15.167Z,20.97
2018-12-16T04:09:41.706Z,19.70
2018-12-16T04:12:08.290Z,21.20
2018-12-16T04:14:34.784Z,21.47
2018-12-16T04:17:01.283Z,22.80
2018-12-16T04:19:27.818Z,21.47
2018-12-16T04:21:54.288Z,23.40
2018-12-16T04:24:21.053Z,24.03
2018-12-16T04:26:47.499Z,24.00
2018-12-16T04:29:13.987Z,19.93
2018-12-16T04:31:40.541Z,21.23
2018-12-16T04:34:07.116Z,14.93
2018-12-16T04:36:33.621Z,24.00
2018-12-16T04:39:00.459Z,28.93
2018-12-16T04:41:26.926Z,23.20
2018-12-16T04:43:53.432Z,26.23
2018-12-16T04:46:19.941Z,26.47
2018-12-16T04:48:46.478Z,27.73
2018-12-16T04:51:13.052Z,30.30
2018-12-16T04:53:39.832Z,28.73
2018-12-16T04:56:06.336Z,27.70
2018-12-16T04:58:32.810Z,29.30
2018-12-16T05:00:59.291Z,28.80
2018-12-16T05:03:25.759Z,29.50
2018-12-16T05:05:52.233Z,27.30
2018-12-16T05:08:18.761Z,28.20
2018-12-16T05:10:45.237Z,29.00
2018-12-16T05:13:11.778Z,24.50
2018-12-16T05:15:38.273Z,22.30
2018-12-16T05:18:04.748Z,23.27
2018-12-16T05:20:31.235Z,20.33
2018-12-16T05:22:57.726Z,29.47
2018-12-16T05:25:24.243Z,25.57
2018-12-16T05:27:50.678Z,27.83
2018-12-16T05:30:17.568Z,28.27
2018-12-16T05:32:44.073Z,31.33
2018-12-16T05:35:10.585Z,30.40
2018-12-16T05:37:37.152Z,25.77
2018-12-16T05:40:03.884Z,25.87
2018-12-16T05:42:30.419Z,26.80
2018-12-16T05:44:57.038Z,27.53
2018-12-16T05:47:23.546Z,26.23
2018-12-16T05:49:50.397Z,24.47
2018-12-16T05:52:17.139Z,21.97
2018-12-16T05:54:43.650Z,22.67
2018-12-16T05:57:10.164Z,23.13
2018-12-16T05:59:36.696Z,27.23
2018-12-16T06:02:03.183Z,25.90
2018-12-16T06:04:29.714Z,22.90
2018-12-16T06:06:56.207Z,25.90
2018-12-16T06:09:22.675Z,26.70
2018-12-16T06:11:49.107Z,19.60
2018-12-16T06:14:15.916Z,25.47
2018-12-16T06:16:42.457Z,25.30
2018-12-16T06:19:08.927Z,24.23
2018-12-16T06:21:35.576Z,22.77
2018-12-16T06:24:02.041Z,20.07
2018-12-16T06:26:28.536Z,16.70
2018-12-16T06:28:55.084Z,19.50
2018-12-16T06:31:21.609Z,22.57
2018-12-16T06:33:48.112Z,22.53
2018-12-16T06:36:14.648Z,20.20
2018-12-16T06:38:41.111Z,21.00
2018-12-16T06:41:07.582Z,22.77
2018-12-16T06:43:34.071Z,21.93
2018-12-16T06:46:00.526Z,23.47
2018-12-16T06:48:27.016Z,20.70
2018-12-16T06:50:53.901Z,19.63
2018-12-16T06:53:20.467Z,20.83
2018-12-16T06:55:47.039Z,22.70
2018-12-16T06:58:13.569Z,22.00
2018-12-16T07:00:40.068Z,22.60
2018-12-16T07:03:06.506Z,21.37
2018-12-16T07:05:33.020Z,21.80
2018-12-16T07:07:59.578Z,20.53
2018-12-16T07:10:26.183Z,20.07
2018-12-16T07:12:52.661Z,20.50
2018-12-16T07:15:19.140Z,20.93
2018-12-16T07:17:45.602Z,20.83
2018-12-16T07:20:12.095Z,20.40
2018-12-16T07:22:38.569Z,19.87
2018-12-16T07:25:05.062Z,18.80
2018-12-16T07:27:31.555Z,19.80
2018-12-16T07:29:58.035Z,16.80
2018-12-16T07:32:24.498Z,14.87
2018-12-16T07:34:51.107Z,18.50
2018-12-16T07:37:19.194Z,17.60
2018-12-16T07:39:46.059Z,20.47
2018-12-16T07:42:12.641Z,20.83
2018-12-16T07:44:39.066Z,18.40
2018-12-16T07:47:05.726Z,20.10
2018-12-16T07:49:32.319Z,19.90
2018-12-16T07:51:58.911Z,17.50
2018-12-16T07:54:25.578Z,18.93
2018-12-16T07:56:52.411Z,18.43
2018-12-16T07:59:18.851Z,16.47
2018-12-16T08:01:45.378Z,18.07
2018-12-16T08:04:11.888Z,17.07
2018-12-16T08:06:38.472Z,17.60
2018-12-16T08:09:05.143Z,18.00
2018-12-16T08:11:31.649Z,17.90
2018-12-16T08:13:58.133Z,15.80
2018-12-16T08:16:24.554Z,17.00
2018-12-16T08:18:51.368Z,16.80
2018-12-16T08:21:17.864Z,17.60
2018-12-16T08:23:44.310Z,15.53
2018-12-16T08:26:10.863Z,15.20
2018-12-16T08:28:37.302Z,16.70
2018-12-16T08:31:03.812Z,17.17
2018-12-16T08:33:30.261Z,15.03
2018-12-16T08:35:56.678Z,13.17
2018-12-16T08:38:23.176Z,13.10
2018-12-16T08:40:49.755Z,15.57
2018-12-16T08:43:16.219Z,11.33
2018-12-16T08:45:42.683Z,15.27
2018-12-16T08:48:09.161Z,15.23
2018-12-16T08:50:35.535Z,14.57
2018-12-16T08:53:02.092Z,13.90
2018-12-16T08:55:28.769Z,12.47
2018-12-16T08:57:55.227Z,10.17
2018-12-16T09:00:21.693Z,11.63
2018-12-16T09:02:48.258Z,12.10
2018-12-16T09:05:14.813Z,11.47
2018-12-16T09:07:41.278Z,15.13
2018-12-16T09:10:08.467Z,14.13
2018-12-16T09:12:34.931Z,14.27
2018-12-16T09:15:01.464Z,14.70
2018-12-16T09:17:27.981Z,14.67
2018-12-16T09:19:54.484Z,11.30
2018-12-16T09:22:20.921Z,15.27
2018-12-16T09:24:47.432Z,15.53
2018-12-16T09:27:13.866Z,12.07
2018-12-16T09:29:40.586Z,13.50
2018-12-16T09:32:07.347Z,13.57
2018-12-16T09:34:33.872Z,13.37
2018-12-16T09:37:00.348Z,13.80
2018-12-16T09:39:27.188Z,14.30
2018-12-16T09:41:53.704Z,13.73
2018-12-16T09:44:20.167Z,12.33
2018-12-16T09:46:46.660Z,13.27
2018-12-16T09:49:13.103Z,11.30
2018-12-16T09:51:39.530Z,14.70
2018-12-16T09:54:06.131Z,10.30
2018-12-16T09:56:32.562Z,14.00
2018-12-16T09:58:59.127Z,14.27
2018-12-16T10:01:25.804Z,11.70
2018-12-16T10:03:52.283Z,10.60
2018-12-16T10:06:18.704Z,14.80
2018-12-16T10:08:45.479Z,13.50
2018-12-16T10:11:11.914Z,13.13
2018-12-16T10:13:38.383Z,11.27
2018-12-16T10:16:05.028Z,10.10
2018-12-16T10:18:31.469Z,11.10
2018-12-16T10:20:58.075Z,12.57
2018-12-16T10:23:24.592Z,12.50
2018-12-16T10:25:51.035Z,13.37
2018-12-16T10:28:17.476Z,13.57
2018-12-16T10:30:43.992Z,12.50
2018-12-16T10:33:10.497Z,14.20
2018-12-16T10:35:37.032Z,11.17
2018-12-16T10:38:03.815Z,10.63
2018-12-16T10:40:30.262Z,12.17
2018-12-16T10:42:56.749Z,11.43
2018-12-16T10:45:23.535Z,12.93
2018-12-16T10:47:50.043Z,12.60
2018-12-16T10:50:16.549Z,13.70
2018-12-16T10:52:43.100Z,12.30
2018-12-16T10:55:09.593Z,12.83
2018-12-16T10:57:36.167Z,12.73
2018-12-16T11:00:06.504Z,11.80
2018-12-16T11:02:32.995Z,12.10
2018-12-16T11:04:59.562Z,12.13
2018-12-16T11:07:26.016Z,13.07
2018-12-16T11:09:52.507Z,13.63
2018-12-16T11:12:19.320Z,14.37
2018-12-16T11:14:46.050Z,22.03
2018-12-16T11:17:12.548Z,14.70
2018-12-16T11:19:38.982Z,14.60
2018-12-16T11:22:05.458Z,13.90
2018-12-16T11:24:31.931Z,11.13
2018-12-16T11:27:05.656Z,13.00
2018-12-16T11:29:32.211Z,12.00
2018-12-16T11:32:06.036Z,13.27
2018-12-16T11:34:32.468Z,12.73
2018-12-16T11:36:58.902Z,12.67
2018-12-16T11:39:25.688Z,12.50
2018-12-16T11:41:52.197Z,12.00
2018-12-16T11:44:18.693Z,13.37
2018-12-16T11:46:45.339Z,13.57
2018-12-16T11:49:11.802Z,13.00
2018-12-16T11:51:38.834Z,12.77
2018-12-16T11:54:05.286Z,12.77
2018-12-16T11:56:31.821Z,11.67
2018-12-16T11:58:58.341Z,12.40
2018-12-16T12:01:25.050Z,11.80
2018-12-16T12:03:51.482Z,12.90
2018-12-16T12:06:17.985Z,11.20
2018-12-16T12:08:44.479Z,12.23
2018-12-16T12:11:10.907Z,12.00
2018-12-16T12:13:37.372Z,11.80
2018-12-16T12:16:04.162Z,12.60
2018-12-16T12:18:30.687Z,11.00
2018-12-16T12:20:57.306Z,10.70
2018-12-16T12:23:24.103Z,12.20
2018-12-16T12:25:50.620Z,12.43
2018-12-16T12:28:17.504Z,12.00
2018-12-16T12:30:44.046Z,10.93
2018-12-16T12:33:10.533Z,11.87
2018-12-16T12:35:37.096Z,11.30
2018-12-16T12:38:03.629Z,10.50
2018-12-16T12:40:30.108Z,11.70
2018-12-16T12:42:56.679Z,13.53
2018-12-16T12:45:23.354Z,11.73
2018-12-16T12:47:49.833Z,12.03
2018-12-16T12:50:16.299Z,11.97
2018-12-16T12:52:42.727Z,13.20
2018-12-16T12:55:09.236Z,12.07
2018-12-16T12:57:35.745Z,11.87
2018-12-16T13:00:03.431Z,12.30
2018-12-16T13:02:29.910Z,13.10
2018-12-16T13:04:56.413Z,13.33
2018-12-16T13:07:23.049Z,12.33
2018-12-16T13:09:49.575Z,12.33
2018-12-16T13:12:16.172Z,10.27
2018-12-16T13:14:42.734Z,13.10
2018-12-16T13:17:09.274Z,12.93
2018-12-16T13:19:35.778Z,13.50
2018-12-16T13:22:02.474Z,14.87
2018-12-16T13:24:28.920Z,12.83
2018-12-16T13:26:55.684Z,12.50
2018-12-16T13:29:22.560Z,12.00
2018-12-16T13:31:48.987Z,10.60
2018-12-16T13:34:15.475Z,10.60
2018-12-16T13:36:42.223Z,11.73
2018-12-16T13:39:08.695Z,13.40
2018-12-16T13:41:35.192Z,10.70
2018-12-16T13:44:01.973Z,13.87
2018-12-16T13:46:28.438Z,14.07
2018-12-16T13:48:54.945Z,13.30
2018-12-16T13:51:21.897Z,12.80
2018-12-16T13:53:48.455Z,13.10
2018-12-16T13:56:21.879Z,12.67
2018-12-16T13:58:48.360Z,10.07
2018-12-16T14:01:14.943Z,10.70
2018-12-16T14:03:41.457Z,11.60
2018-12-16T14:06:07.899Z,12.27
2018-12-16T14:08:34.314Z,12.47
2018-12-16T14:11:00.781Z,10.30
2018-12-16T14:13:27.273Z,11.60
2018-12-16T14:15:53.715Z,12.40
2018-12-16T14:18:20.583Z,11.37
2018-12-16T14:20:47.166Z,11.27
2018-12-16T14:23:13.806Z,12.90
2018-12-16T14:25:47.712Z,12.00
2018-12-16T14:28:09.159Z,12.43
2018-12-16T14:30:35.723Z,14.17
2018-12-16T14:33:03.294Z,13.10
2018-12-16T14:35:30.665Z,11.73
2018-12-16T14:37:58.079Z,13.60
2018-12-16T14:40:25.183Z,12.33
2018-12-16T14:42:51.881Z,12.83
2018-12-16T14:45:18.346Z,13.57
2018-12-16T14:47:44.797Z,11.30
2018-12-16T14:50:11.383Z,13.90
2018-12-16T14:52:37.863Z,13.40
2018-12-16T14:55:04.733Z,13.43
2018-12-16T14:57:31.320Z,13.70
2018-12-16T14:59:57.812Z,13.13
2018-12-16T15:02:24.706Z,14.10
2018-12-16T15:04:51.251Z,12.17
2018-12-16T15:07:17.710Z,12.27
2018-12-16T15:09:44.239Z,13.77
2018-12-16T15:12:10.674Z,14.03
2018-12-16T15:14:37.155Z,13.80
2018-12-16T15:17:03.661Z,19.13
2018-12-16T15:19:30.222Z,13.33
2018-12-16T15:21:56.654Z,13.53
2018-12-16T15:24:23.531Z,14.93
2018-12-16T15:26:50.107Z,18.23
2018-12-16T15:29:16.968Z,14.50
2018-12-16T15:31:43.660Z,20.07
2018-12-16T15:34:10.445Z,16.73
2018-12-16T15:36:37.044Z,15.63
2018-12-16T15:39:05.042Z,14.67
2018-12-16T15:41:31.611Z,14.37
2018-12-16T15:43:58.197Z,16.53
2018-12-16T15:46:24.663Z,14.30
2018-12-16T15:48:51.180Z,14.80
2018-12-16T15:51:17.748Z,14.67
2018-12-16T15:53:44.657Z,13.80
2018-12-16T15:56:11.227Z,14.50
2018-12-16T15:58:37.810Z,12.83
2018-12-16T16:01:04.639Z,13.47
2018-12-16T16:03:31.232Z,13.73
2018-12-16T16:05:57.871Z,15.80
2018-12-16T16:08:24.356Z,14.70
2018-12-16T16:10:52.752Z,15.30
2018-12-16T16:13:19.492Z,14.17
2018-12-16T16:15:46.382Z,15.90
2018-12-16T16:18:12.851Z,14.83
2018-12-16T16:20:39.387Z,14.57
2018-12-16T16:23:06.908Z,15.07
2018-12-16T16:25:33.632Z,13.97
2018-12-16T16:28:00.136Z,15.60
2018-12-16T16:30:27.114Z,15.47
2018-12-16T16:32:53.552Z,16.07
2018-12-16T16:35:20.113Z,17.13
2018-12-16T16:37:46.795Z,15.70
2018-12-16T16:40:13.620Z,16.13
2018-12-16T16:42:40.113Z,16.00
2018-12-16T16:45:06.599Z,17.73
2018-12-16T16:47:33.083Z,17.83
2018-12-16T16:49:59.607Z,17.60
2018-12-16T16:52:26.400Z,17.77
2018-12-16T16:54:52.899Z,16.27
2018-12-16T16:57:19.363Z,17.37
2018-12-16T16:59:45.862Z,15.77
2018-12-16T17:02:12.494Z,16.83
2018-12-16T17:04:38.980Z,18.00
2018-12-16T17:07:12.776Z,18.80
2018-12-16T17:09:39.267Z,17.60
2018-12-16T17:12:05.702Z,17.70
2018-12-16T17:14:32.347Z,17.63
2018-12-16T17:16:58.852Z,17.00
2018-12-16T17:19:25.826Z,13.63
2018-12-16T17:21:52.547Z,17.33
2018-12-16T17:24:19.215Z,16.57
2018-12-16T17:26:45.843Z,15.57
2018-12-16T17:29:12.627Z,15.00
2018-12-16T17:31:39.198Z,13.53
2018-12-16T17:34:05.666Z,14.53
2018-12-16T17:36:32.337Z,17.83
2018-12-16T17:38:58.960Z,15.40
2018-12-16T17:41:25.397Z,16.23
2018-12-16T17:43:51.957Z,16.47
2018-12-16T17:46:18.551Z,18.10
2018-12-16T17:48:45.325Z,18.47
2018-12-16T17:51:11.872Z,16.53
2018-12-16T17:53:38.301Z,17.80
2018-12-16T17:56:04.934Z,16.87
2018-12-16T17:58:31.814Z,16.03
2018-12-16T18:00:58.383Z,16.53
2018-12-16T18:03:25.434Z,16.73
2018-12-16T18:05:52.614Z,15.73
2018-12-16T18:08:19.308Z,17.97
2018-12-16T18:10:46.068Z,18.10
2018-12-16T18:13:12.763Z,17.63
2018-12-16T18:15:39.416Z,18.27
2018-12-16T18:18:06.831Z,18.13
2018-12-16T18:20:33.660Z,17.40
2018-12-16T18:23:00.146Z,18.60
2018-12-16T18:25:27.308Z,17.87
2018-12-16T18:27:54.495Z,17.33
2018-12-16T18:30:21.046Z,16.97
2018-12-16T18:32:47.591Z,18.20
2018-12-16T18:35:14.167Z,18.00
2018-12-16T18:37:41.195Z,18.20
2018-12-16T18:40:07.685Z,19.30
2018-12-16T18:42:34.226Z,17.93
2018-12-16T18:45:00.755Z,17.70
2018-12-16T18:47:27.279Z,18.33
2018-12-16T18:49:54.965Z,16.20
2018-12-16T18:52:21.913Z,19.03
2018-12-16T18:54:48.575Z,18.33
2018-12-16T18:57:15.120Z,18.50
2018-12-16T18:59:41.740Z,17.87
2018-12-16T19:02:08.218Z,18.10
2018-12-16T19:04:34.997Z,18.10
2018-12-16T19:07:01.820Z,18.97
2018-12-16T19:09:28.335Z,18.80
2018-12-16T19:11:55.129Z,18.23
2018-12-16T19:14:21.799Z,18.57
2018-12-16T19:16:48.399Z,16.90
2018-12-16T19:19:15.282Z,17.40
2018-12-16T19:21:42.555Z,19.10
2018-12-16T19:24:09.079Z,18.47
2018-12-16T19:26:35.747Z,17.50
2018-12-16T19:31:59.695Z,17.70
2018-12-16T19:34:26.295Z,17.17
2018-12-16T19:36:52.804Z,17.50
2018-12-16T19:39:19.339Z,17.27
2018-12-16T19:41:45.883Z,16.07
2018-12-16T19:44:12.994Z,17.70
2018-12-16T19:46:39.713Z,17.37
2018-12-16T19:49:06.286Z,16.17
2018-12-16T19:51:32.810Z,17.97
2018-12-16T19:53:59.452Z,17.57
2018-12-16T19:56:26.052Z,16.67
2018-12-16T19:58:52.897Z,17.20
2018-12-16T20:01:20.723Z,17.10
2018-12-16T20:03:53.607Z,17.00
2018-12-16T20:06:26.472Z,18.40
2018-12-16T20:08:53.046Z,19.03
2018-12-16T20:11:19.549Z,17.00
2018-12-16T20:13:46.160Z,16.10
2018-12-16T20:16:12.819Z,15.20
2018-12-16T20:18:39.417Z,19.40
2018-12-16T20:21:05.992Z,17.37
2018-12-16T20:23:32.549Z,18.53
2018-12-16T20:25:59.097Z,18.23
2018-12-16T20:28:26.732Z,17.80
2018-12-16T20:30:53.316Z,20.40
2018-12-16T20:33:19.816Z,17.90
2018-12-16T20:35:46.778Z,19.43
2018-12-16T20:38:13.490Z,19.13
2018-12-16T20:40:40.342Z,21.30
2018-12-16T20:43:06.988Z,20.30
2018-12-16T20:45:33.581Z,18.97
2018-12-16T20:48:00.167Z,20.50
2018-12-16T20:50:27.092Z,20.90
2018-12-16T20:52:53.652Z,21.20
2018-12-16T20:55:20.195Z,21.80
2018-12-16T20:57:46.961Z,22.57
2018-12-16T21:00:13.450Z,21.60
2018-12-16T21:02:40.008Z,22.50
2018-12-16T21:05:06.597Z,21.17
2018-12-16T21:07:33.173Z,21.90
2018-12-16T21:09:59.821Z,22.03
2018-12-16T21:12:32.683Z,23.33
2018-12-16T21:15:05.506Z,22.57
2018-12-16T21:17:38.492Z,23.00
2018-12-16T21:20:05.807Z,23.33
2018-12-16T21:22:32.356Z,21.20
2018-12-16T21:24:59.153Z,23.60
2018-12-16T21:27:26.053Z,22.70
2018-12-16T21:29:53.093Z,21.43
2018-12-16T21:32:19.967Z,21.57
2018-12-16T21:34:46.470Z,21.63
2018-12-16T21:37:13.032Z,23.93
2018-12-16T21:39:39.588Z,23.73
2018-12-16T21:42:06.042Z,23.17
2018-12-16T21:44:32.615Z,22.07
2018-12-16T21:46:59.493Z,23.73
2018-12-16T21:49:26.091Z,24.37
2018-12-16T21:51:52.623Z,21.60
2018-12-16T21:54:19.311Z,23.10
2018-12-16T21:56:45.839Z,24.10
2018-12-16T21:59:12.347Z,23.63
2018-12-16T22:01:39.438Z,24.83
2018-12-16T22:04:05.891Z,23.80
2018-12-16T22:06:32.536Z,24.30
2018-12-16T22:08:59.115Z,22.87
2018-12-16T22:11:25.732Z,23.20
2018-12-16T22:13:52.341Z,25.87
2018-12-16T22:16:19.271Z,24.60
2018-12-16T22:18:45.785Z,24.43
2018-12-16T22:21:12.312Z,22.97
2018-12-16T22:23:39.179Z,26.07
2018-12-16T22:26:05.683Z,25.57
2018-12-16T22:28:32.222Z,24.93
2018-12-16T22:30:59.016Z,22.90
2018-12-16T22:33:25.588Z,26.13
2018-12-16T22:35:52.144Z,25.10
2018-12-16T22:38:18.860Z,25.23
2018-12-16T22:40:45.533Z,26.07
2018-12-16T22:43:11.990Z,24.37
2018-12-16T22:45:38.833Z,27.27
2018-12-16T22:48:05.444Z,23.40
2018-12-16T22:50:31.990Z,24.30
2018-12-16T22:52:58.972Z,28.27
2018-12-16T22:55:25.535Z,25.30
2018-12-16T22:57:52.067Z,26.07
2018-12-16T23:00:19.044Z,24.13
2018-12-16T23:02:45.547Z,25.60
2018-12-16T23:05:12.123Z,26.07
2018-12-16T23:07:38.659Z,25.87
2018-12-16T23:10:05.259Z,27.10
2018-12-16T23:12:33.424Z,25.47
2018-12-16T23:15:00.332Z,27.43
2018-12-16T23:17:27.138Z,25.90
2018-12-16T23:20:00.380Z,24.30
2018-12-16T23:22:26.914Z,25.10
2018-12-16T23:24:53.861Z,27.30
2018-12-16T23:27:20.573Z,26.73
2018-12-16T23:29:47.078Z,27.03
2018-12-16T23:32:13.573Z,26.43
2018-12-16T23:34:40.471Z,25.03
2018-12-16T23:37:06.988Z,26.20
2018-12-16T23:39:33.515Z,23.97
2018-12-16T23:42:00.403Z,25.93
2018-12-16T23:44:26.940Z,23.73
2018-12-16T23:46:53.432Z,23.10
2018-12-16T23:49:20.285Z,25.97
2018-12-16T23:51:46.846Z,24.77
2018-12-16T23:54:13.739Z,25.10
2018-12-16T23:56:40.290Z,25.77
2018-12-16T23:59:06.869Z,24.03
